Time;durP1;ratioP1;P1;durP2;ratioP2;P2;SDS_P1;SDS_P2;PMS_P1;PMS_P2;Temp;Humidity;BMP_temperature;BMP_pressure;BME280_temperature;BME280_humidity;BME280_pressure;Samples;Min_cycle;Max_cycle;Signal;HPM_P1;HPM_P2
2022/07/27 00:00:09;;;;;;;14.20;10.70;;;;;;;23.27;100.00;63291.34;5071734;28;20570;-78
2022/07/27 00:02:38;;;;;;;13.40;10.93;;;;;;;23.41;100.00;63311.75;5071710;28;20205;-76
2022/07/27 00:05:06;;;;;;;12.73;11.43;;;;;;;23.44;100.00;63315.53;5071832;28;20202;-75
2022/07/27 00:07:33;;;;;;;14.63;10.97;;;;;;;23.34;100.00;63304.16;5082644;28;20196;-75
2022/07/27 00:10:00;;;;;;;12.10;10.40;;;;;;;23.08;100.00;63273.34;5090416;28;20598;-75
2022/07/27 00:12:27;;;;;;;13.27;10.97;;;;;;;23.03;100.00;63270.53;5079888;28;20203;-75
2022/07/27 00:14:57;;;;;;;12.53;11.00;;;;;;;23.07;100.00;63274.88;5077019;28;20234;-76
2022/07/27 00:17:25;;;;;;;12.57;10.50;;;;;;;23.04;100.00;63269.03;5082383;28;20253;-76
2022/07/27 00:19:54;;;;;;;13.40;11.50;;;;;;;23.00;100.00;63267.28;5087347;28;20628;-75
2022/07/27 00:22:21;;;;;;;12.63;11.20;;;;;;;22.94;100.00;63258.19;5071325;28;20220;-75
2022/07/27 00:24:49;;;;;;;12.27;11.07;;;;;;;22.94;100.00;63260.78;5072198;28;20196;-77
2022/07/27 00:27:17;;;;;;;11.73;10.43;;;;;;;22.91;100.00;63257.53;5071608;28;20201;-77
2022/07/27 00:29:45;;;;;;;15.50;10.93;;;;;;;22.91;100.00;63257.53;5071398;28;20221;-76
2022/07/27 00:32:12;;;;;;;12.83;11.53;;;;;;;22.97;100.00;63264.03;5073481;28;20716;-75
2022/07/27 00:34:39;;;;;;;14.43;11.70;;;;;;;22.87;100.00;63251.13;5082255;28;20590;-76
2022/07/27 00:37:08;;;;;;;13.13;10.87;;;;;;;22.26;100.00;63188.16;5084611;28;20212;-76
2022/07/27 00:39:35;;;;;;;12.67;11.33;;;;;;;22.65;100.00;63227.28;5081478;28;20211;-77
2022/07/27 00:42:02;;;;;;;14.50;11.80;;;;;;;22.83;100.00;63248.84;5077929;28;20199;-75
2022/07/27 00:44:33;;;;;;;15.13;11.73;;;;;;;21.92;100.00;63150.78;5084086;28;20698;-76
2022/07/27 00:47:06;;;;;;;12.00;10.80;;;;;;;22.89;100.00;63260.53;5075156;28;20287;-76
2022/07/27 00:49:33;;;;;;;12.23;10.83;;;;;;;22.87;100.00;63251.13;5076093;28;20708;-75
2022/07/27 00:52:01;;;;;;;13.27;11.33;;;;;;;21.82;100.00;63140.50;5094049;28;20196;-76
2022/07/27 00:54:30;;;;;;;14.03;11.57;;;;;;;22.73;100.00;63232.81;5083130;28;20220;-75
2022/07/27 00:56:57;;;;;;;14.47;11.70;;;;;;;22.58;100.00;63217.63;5075063;28;20265;-77
2022/07/27 00:59:26;;;;;;;13.27;11.63;;;;;;;22.85;100.00;63251.00;5073795;28;20564;-77
2022/07/27 01:01:53;;;;;;;12.37;10.70;;;;;;;22.80;100.00;63245.59;5062230;28;20188;-77
2022/07/27 01:04:20;;;;;;;16.87;12.10;;;;;;;22.70;100.00;63235.28;5075423;28;20201;-74
2022/07/27 01:06:47;;;;;;;12.57;11.27;;;;;;;22.77;100.00;63237.16;5081117;28;20650;-76
2022/07/27 01:12:16;;;;;;;12.63;11.33;;;;;;;22.68;100.00;63231.06;5012945;28;20203;-76
2022/07/27 01:14:45;;;;;;;13.93;11.30;;;;;;;22.49;100.00;63215.66;5061311;28;20216;-74
2022/07/27 01:17:13;;;;;;;14.47;12.17;;;;;;;22.43;100.00;63206.56;5074711;28;20200;-75
2022/07/27 01:19:40;;;;;;;12.37;11.17;;;;;;;22.53;100.00;63214.81;5075300;28;20574;-75
2022/07/27 01:22:09;;;;;;;14.70;11.37;;;;;;;22.49;100.00;63212.53;5074485;28;20232;-74
2022/07/27 01:24:36;;;;;;;12.67;11.37;;;;;;;22.49;100.00;63209.94;5075086;28;20193;-76
2022/07/27 01:27:05;;;;;;;12.47;11.20;;;;;;;21.45;100.00;63095.22;5075037;28;20328;-74
2022/07/27 01:29:33;;;;;;;12.30;11.00;;;;;;;22.45;100.00;63208.75;5074339;28;20224;-75
2022/07/27 01:32:02;;;;;;;12.37;11.07;;;;;;;22.41;100.00;63198.66;5081901;28;20203;-75
2022/07/27 01:34:32;;;;;;;13.87;11.80;;;;;;;22.31;100.00;63193.03;5078526;28;20235;-77
2022/07/27 01:37:01;;;;;;;15.90;12.20;;;;;;;21.41;100.00;63096.09;5074961;28;20349;-75
2022/07/27 01:39:31;;;;;;;13.57;11.80;;;;;;;21.28;100.00;63090.31;5074956;28;20689;-76
2022/07/27 01:41:59;;;;;;;14.77;12.17;;;;;;;22.11;100.00;63171.34;5075509;28;20211;-75
2022/07/27 01:44:26;;;;;;;15.43;11.77;;;;;;;22.08;100.00;63168.66;5084337;28;20286;-78
2022/07/27 01:46:53;;;;;;;13.13;11.80;;;;;;;21.90;100.00;63149.16;5080846;28;20192;-77
2022/07/27 01:49:20;;;;;;;12.90;11.50;;;;;;;21.98;100.00;63154.69;5093985;28;20689;-75
2022/07/27 01:51:48;;;;;;;13.57;12.17;;;;;;;21.87;100.00;63145.38;5094487;28;20238;-77
2022/07/27 01:54:15;;;;;;;14.60;12.83;;;;;;;21.91;100.00;63147.66;5079584;28;20563;-76
2022/07/27 01:56:44;;;;;;;16.57;12.30;;;;;;;21.84;100.00;63143.19;5094028;28;20625;-75
2022/07/27 01:59:11;;;;;;;13.40;11.73;;;;;;;20.85;100.00;63036.53;5093906;28;20199;-74
2022/07/27 02:01:41;;;;;;;14.43;12.90;;;;;;;21.15;100.00;63067.94;5088090;28;20199;-75
2022/07/27 02:04:09;;;;;;;13.53;11.63;;;;;;;21.66;100.00;63123.16;5080755;28;20191;-76
2022/07/27 02:06:38;;;;;;;16.30;12.70;;;;;;;21.09;100.00;63061.44;5080550;28;20654;-76
2022/07/27 02:09:09;;;;;;;17.33;13.40;;;;;;;21.40;100.00;63090.34;5094394;28;20198;-76
2022/07/27 02:14:22;;;;;;;13.70;12.30;;;;;;;21.51;100.00;63107.44;5088768;28;20672;-76
2022/07/27 02:16:51;;;;;;;13.97;12.00;;;;;;;21.46;100.00;63101.50;5093900;28;20192;-76
2022/07/27 02:19:19;;;;;;;13.83;12.43;;;;;;;21.54;100.00;63110.16;5093343;28;20251;-76
2022/07/27 02:21:48;;;;;;;14.60;11.97;;;;;;;21.55;100.00;63111.25;5093616;28;20750;-77
2022/07/27 02:24:14;;;;;;;16.23;13.37;;;;;;;21.26;100.00;63080.38;5092585;28;20200;-76
2022/07/27 02:26:42;;;;;;;13.70;12.33;;;;;;;20.80;100.00;63030.59;5093678;28;20199;-76
2022/07/27 02:29:10;;;;;;;14.23;12.73;;;;;;;21.59;100.00;63112.97;5092770;28;20227;-76
2022/07/27 02:31:39;;;;;;;15.83;13.53;;;;;;;21.50;100.00;63103.22;5082375;28;20576;-75
2022/07/27 02:34:06;;;;;;;13.93;12.53;;;;;;;21.42;100.00;63095.13;5077412;28;20199;-76
2022/07/27 02:36:33;;;;;;;13.90;12.40;;;;;;;21.30;100.00;63084.16;5081660;28;20220;-77
2022/07/27 02:39:01;;;;;;;15.27;12.73;;;;;;;21.23;100.00;63076.59;5086293;28;20557;-77
2022/07/27 02:41:30;;;;;;;14.93;12.67;;;;;;;21.23;100.00;63074.00;5073298;28;20203;-76
2022/07/27 02:43:57;;;;;;;14.43;12.70;;;;;;;21.14;100.00;63066.84;5090714;28;20214;-76
2022/07/27 02:46:26;;;;;;;16.47;13.17;;;;;;;21.22;100.00;63075.50;5093136;28;20195;-76
2022/07/27 02:48:56;;;;;;;16.40;12.07;;;;;;;20.34;100.00;62975.66;5092400;28;20203;-77
2022/07/27 02:51:24;;;;;;;15.27;12.23;;;;;;;20.57;100.00;63005.69;5091211;28;20200;-74
2022/07/27 02:53:52;;;;;;;14.93;12.57;;;;;;;20.85;100.00;63036.00;5092516;28;20191;-74
2022/07/27 02:56:19;;;;;;;15.13;12.70;;;;;;;20.99;100.00;63051.69;5092381;28;20223;-76
2022/07/27 02:58:46;;;;;;;17.53;12.33;;;;;;;20.25;100.00;62971.63;5093248;28;20598;-75
2022/07/27 03:01:14;;;;;;;13.40;12.07;;;;;;;20.80;100.00;63025.97;5092484;28;20728;-76
2022/07/27 03:03:42;;;;;;;16.87;13.13;;;;;;;20.78;100.00;63028.44;5092886;28;20728;-76
2022/07/27 03:06:15;;;;;;;14.13;12.60;;;;;;;20.52;100.00;63000.84;5077763;28;20667;-76
2022/07/27 03:08:42;;;;;;;13.80;12.30;;;;;;;20.85;100.00;63036.53;5081907;28;20199;-74
2022/07/27 03:11:09;;;;;;;15.73;13.47;;;;;;;20.02;100.00;62944.19;5093414;28;20608;-75
2022/07/27 03:13:36;;;;;;;14.20;12.70;;;;;;;19.90;100.00;62928.63;5075879;28;20196;-76
2022/07/27 03:16:04;;;;;;;16.63;12.87;;;;;;;20.90;100.00;63041.97;5072727;28;20220;-74
2022/07/27 03:18:31;;;;;;;16.80;12.90;;;;;;;19.99;100.00;62940.91;5073293;28;20199;-76
2022/07/27 03:20:59;;;;;;;18.77;13.20;;;;;;;20.89;100.00;63040.88;5072684;28;20212;-75
2022/07/27 03:23:28;;;;;;;16.47;12.40;;;;;;;20.77;100.00;63025.28;5073091;28;20224;-76
2022/07/27 03:25:55;;;;;;;16.10;13.60;;;;;;;20.60;100.00;63004.31;5072990;28;20200;-74
2022/07/27 03:28:24;;;;;;;15.70;12.90;;;;;;;20.70;100.00;63020.31;5074823;28;20338;-76
2022/07/27 03:30:52;;;;;;;17.37;13.70;;;;;;;20.73;100.00;63023.00;5074562;28;20273;-77
2022/07/27 03:33:19;;;;;;;14.30;12.80;;;;;;;20.39;100.00;62983.66;5073171;28;20603;-75
2022/07/27 03:35:49;;;;;;;19.97;13.53;;;;;;;20.29;100.00;62981.13;5072698;28;20253;-76
2022/07/27 03:38:16;;;;;;;18.10;13.70;;;;;;;20.89;100.00;63035.13;5072272;28;20208;-76
2022/07/27 03:40:45;;;;;;;16.13;13.57;;;;;;;20.61;100.00;63005.41;5072515;28;20713;-77
2022/07/27 03:43:12;;;;;;;14.67;12.70;;;;;;;20.93;100.00;63044.66;5072863;28;20294;-76
2022/07/27 03:45:41;;;;;;;17.80;13.73;;;;;;;20.90;100.00;63036.22;5072377;28;20563;-76
2022/07/27 03:48:08;;;;;;;15.20;13.00;;;;;;;21.06;100.00;63053.00;5072360;28;20211;-76
2022/07/27 03:50:36;;;;;;;16.70;13.17;;;;;;;20.38;100.00;62985.16;5073217;28;20192;-75
2022/07/27 03:53:06;;;;;;;17.27;13.30;;;;;;;21.10;100.00;63060.47;5072912;28;20227;-75
2022/07/27 03:55:35;;;;;;;16.17;12.47;;;;;;;20.20;100.00;62966.75;5073206;28;20224;-75
2022/07/27 03:58:05;;;;;;;13.40;11.67;;;;;;;21.10;100.00;63062.53;5071165;28;20291;-77
2022/07/27 04:00:34;;;;;;;13.70;12.10;;;;;;;21.13;100.00;63065.78;5072629;28;20203;-75
2022/07/27 04:03:02;;;;;;;14.87;12.60;;;;;;;20.31;100.00;62975.00;5072336;28;20228;-74
2022/07/27 04:05:29;;;;;;;13.07;11.43;;;;;;;21.16;100.00;63063.84;5073188;28;20670;-76
2022/07/27 04:07:57;;;;;;;12.03;10.50;;;;;;;20.50;100.00;63001.28;5071824;28;20196;-74
2022/07/27 04:10:27;;;;;;;15.17;11.10;;;;;;;21.45;100.00;63098.34;5071890;28;20651;-75
2022/07/27 04:12:54;;;;;;;14.27;11.47;;;;;;;21.44;100.00;63094.69;5076461;28;20213;-78
2022/07/27 04:15:23;;;;;;;14.93;11.53;;;;;;;21.48;100.00;63101.06;5079723;28;20239;-76
2022/07/27 04:17:51;;;;;;;12.23;10.47;;;;;;;21.56;100.00;63112.88;5070366;28;20196;-76
2022/07/27 04:20:18;;;;;;;17.53;11.43;;;;;;;21.70;100.00;63128.03;5072161;28;20204;-75
2022/07/27 04:22:47;;;;;;;21.97;11.87;;;;;;;21.92;100.00;63151.31;5071441;28;20211;-76
2022/07/27 04:25:14;;;;;;;16.27;11.27;;;;;;;22.05;100.00;63164.88;5084640;28;20566;-74
2022/07/27 04:27:41;;;;;;;29.37;11.90;;;;;;;22.30;100.00;63189.88;5091343;28;20195;-75
2022/07/27 04:30:10;;;;;;;19.73;12.20;;;;;;;22.22;100.00;63183.81;5077786;28;20575;-74
2022/07/27 04:32:41;;;;;;;20.30;12.10;;;;;;;22.42;100.00;63205.47;5079292;28;20256;-75
2022/07/27 04:35:09;;;;;;;22.13;14.57;;;;;;;21.91;100.00;63150.25;5089445;28;20223;-77
2022/07/27 04:37:36;;;;;;;20.70;14.90;;;;;;;22.14;100.00;63169.97;5071380;28;20204;-76
2022/07/27 04:40:04;;;;;;;26.80;14.97;;;;;;;22.06;100.00;63160.75;5071196;28;20208;-76
2022/07/27 04:42:31;;;;;;;20.17;15.17;;;;;;;22.13;100.00;63168.88;5073503;28;20215;-75
2022/07/27 04:44:58;;;;;;;23.17;16.30;;;;;;;22.07;100.00;63167.03;5082128;28;20200;-75
2022/07/27 04:47:26;;;;;;;28.13;15.93;;;;;;;21.99;100.00;63158.38;5073513;28;20850;-76
2022/07/27 04:49:56;;;;;;;17.10;14.67;;;;;;;22.20;100.00;63176.44;5081723;28;20192;-75
2022/07/27 04:52:25;;;;;;;20.97;14.67;;;;;;;22.15;100.00;63173.66;5071189;28;20192;-76
2022/07/27 04:54:53;;;;;;;19.27;15.37;;;;;;;21.77;100.00;63129.88;5071241;28;20663;-73
2022/07/27 04:57:22;;;;;;;26.40;23.30;;;;;;;21.46;100.00;63101.50;5088293;28;20191;-76
2022/07/27 04:59:51;;;;;;;29.33;19.50;;;;;;;22.32;100.00;63191.50;5091204;28;20616;-75
2022/07/27 05:02:21;;;;;;;32.27;20.93;;;;;;;22.07;100.00;63170.16;5090302;28;20187;-76
2022/07/27 05:04:48;;;;;;;46.90;24.13;;;;;;;22.17;100.00;63173.22;5087695;28;20195;-76
2022/07/27 05:07:17;;;;;;;35.13;23.00;;;;;;;22.28;100.00;63185.13;5081116;28;20676;-74
2022/07/27 05:09:45;;;;;;;45.70;29.70;;;;;;;22.21;100.00;63180.16;5090517;28;20196;-76
2022/07/27 05:12:12;;;;;;;34.90;23.30;;;;;;;22.36;100.00;63198.44;5090815;28;20230;-77
2022/07/27 05:14:40;;;;;;;44.00;27.03;;;;;;;22.26;100.00;63185.56;5090197;28;20315;-75
2022/07/27 05:17:10;;;;;;;40.80;27.40;;;;;;;22.48;100.00;63211.44;5090141;28;20766;-76
2022/07/27 05:19:37;;;;;;;33.37;23.23;;;;;;;21.91;100.00;63150.25;5090285;28;20192;-76
2022/07/27 05:22:04;;;;;;;50.67;28.50;;;;;;;22.68;100.00;63230.53;5090448;28;20239;-77
2022/07/27 05:24:33;;;;;;;49.10;22.17;;;;;;;22.35;100.00;63192.16;5084940;28;20666;-75
2022/07/27 05:27:01;;;;;;;41.10;22.13;;;;;;;22.55;100.00;63214.38;5071454;28;20203;-75
2022/07/27 05:29:28;;;;;;;46.00;24.83;;;;;;;22.58;100.00;63220.25;5084738;28;20224;-75
2022/07/27 05:31:55;;;;;;;32.67;23.13;;;;;;;22.70;100.00;63234.78;5094234;28;20215;-77
2022/07/27 05:34:23;;;;;;;29.87;20.70;;;;;;;22.92;100.00;63256.00;5091165;28;20211;-74
2022/07/27 05:36:50;;;;;;;35.03;22.50;;;;;;;22.95;100.00;63262.41;5085871;28;20235;-74
2022/07/27 05:39:18;;;;;;;29.50;17.97;;;;;;;22.99;100.00;63263.59;5088410;28;20639;-76
2022/07/27 05:41:46;;;;;;;32.57;17.73;;;;;;;23.11;100.00;63279.19;5074117;28;20200;-76
2022/07/27 05:44:16;;;;;;;32.40;15.70;;;;;;;23.61;100.00;63330.84;5093715;28;20203;-76
2022/07/27 05:47:04;;;;;;;36.40;19.23;;;;;;;24.14;100.00;63390.41;5093639;28;20287;-77
2022/07/27 05:49:32;;;;;;;37.47;22.00;;;;;;;24.11;100.00;63381.94;5073687;28;20193;-75
2022/07/27 05:52:01;;;;;;;35.53;23.23;;;;;;;24.25;100.00;63402.34;5088960;28;20210;-76
2022/07/27 05:54:28;;;;;;;44.63;20.83;;;;;;;24.88;100.00;63470.22;5083652;28;20258;-75
2022/07/27 05:56:56;;;;;;;35.07;19.77;;;;;;;24.64;100.00;63438.94;5091117;28;20624;-75
2022/07/27 05:59:24;;;;;;;29.73;18.27;;;;;;;25.24;100.00;63509.31;5094675;28;20211;-75
2022/07/27 06:01:51;;;;;;;32.97;18.43;;;;;;;25.40;100.00;63523.53;5093484;28;20200;-74
2022/07/27 06:04:18;;;;;;;31.07;18.40;;;;;;;25.63;100.00;63549.09;5088268;28;20195;-77
2022/07/27 06:09:30;;;;;;;29.70;16.67;;;;;;;25.89;100.00;63579.41;5073893;28;20584;-77
2022/07/27 06:11:58;;;;;;;29.50;16.10;;;;;;;26.07;100.00;63593.22;5073815;28;20257;-75
2022/07/27 06:14:25;;;;;;;23.73;16.27;;;;;;;26.16;100.00;63600.41;5074289;28;20205;-76
2022/07/27 06:16:53;;;;;;;30.13;16.10;;;;;;;26.13;100.00;63600.28;5078366;28;20257;-75
2022/07/27 06:19:20;;;;;;;24.47;15.27;;;;;;;26.22;100.00;63610.06;5082230;28;20204;-76
2022/07/27 06:21:48;;;;;;;26.37;14.43;;;;;;;26.38;100.00;63627.47;5060068;28;20212;-76
2022/07/27 06:24:15;;;;;;;24.80;14.83;;;;;;;26.83;100.00;63675.88;5073287;28;20717;-76
2022/07/27 06:26:42;;;;;;;29.87;13.53;;;;;;;27.23;100.00;63716.75;5060405;28;20199;-76
2022/07/27 06:29:12;;;;;;;17.07;12.73;;;;;;;27.69;100.00;63768.91;5073073;28;20710;-75
2022/07/27 06:31:40;;;;;;;28.60;13.27;;;;;;;27.93;100.00;63789.25;5073410;28;20646;-75
2022/07/27 06:34:07;;;;;;;23.03;12.43;;;;;;;27.77;100.00;63777.63;5073155;28;20200;-75
2022/07/27 06:36:38;;;;;;;22.30;12.37;;;;;;;28.39;100.00;63847.22;5071973;28;20250;-75
2022/07/27 06:39:06;;;;;;;22.43;12.43;;;;;;;28.11;100.00;63819.34;5073323;28;20204;-75
2022/07/27 06:41:35;;;;;;;20.07;11.33;;;;;;;27.82;100.00;63782.50;5073073;28;20202;-76
2022/07/27 06:44:03;;;;;;;23.77;11.33;;;;;;;28.21;100.00;63830.25;5073204;28;20556;-77
2022/07/27 06:46:32;;;;;;;20.57;11.10;;;;;;;28.65;100.00;63875.00;5073248;28;20345;-76
2022/07/27 06:48:58;;;;;;;21.07;10.70;;;;;;;28.87;100.00;63896.91;5073134;28;20579;-77
2022/07/27 06:51:26;;;;;;;18.00;9.87;;;;;;;28.86;100.00;63895.81;5072619;28;20197;-76
2022/07/27 06:53:53;;;;;;;19.27;10.83;;;;;;;28.97;100.00;63907.25;5073000;28;20640;-77
2022/07/27 06:56:23;;;;;;;18.00;10.00;;;;;;;28.79;100.00;63890.81;5072949;28;20222;-75
2022/07/27 06:58:51;;;;;;;16.40;9.67;;;;;;;28.94;100.00;63899.28;5072993;28;20206;-76
2022/07/27 07:01:19;;;;;;;14.97;9.13;;;;;;;28.99;100.00;63909.44;5072483;28;20263;-75
2022/07/27 07:03:47;;;;;;;22.03;10.73;;;;;;;28.98;100.00;63908.31;5078022;28;20251;-76
2022/07/27 07:06:15;;;;;;;16.53;8.57;;;;;;;28.73;100.00;63884.28;5083920;28;20211;-75
2022/07/27 07:08:42;;;;;;;18.97;8.40;;;;;;;28.88;100.00;63903.22;5089620;28;20203;-75
2022/07/27 07:11:12;;;;;;;15.23;8.50;;;;;;;29.28;100.00;63940.50;5074457;28;20201;-75
2022/07/27 07:13:40;;;;;;;17.00;8.10;;;;;;;28.96;100.00;63906.69;5072229;28;20548;-77
2022/07/27 07:16:07;;;;;;;15.70;7.83;;;;;;;28.88;100.00;63897.97;5085630;28;20226;-76
2022/07/27 07:18:34;;;;;;;17.23;7.87;;;;;;;29.08;100.00;63922.41;5090234;28;20207;-75
2022/07/27 07:21:04;;;;;;;18.13;7.80;;;;;;;29.34;100.00;63947.56;5092282;28;20224;-75
2022/07/27 07:23:32;;;;;;;14.13;8.97;;;;;;;29.53;100.00;63968.28;5092126;28;20573;-77
2022/07/27 07:25:59;;;;;;;11.03;8.30;;;;;;;29.29;100.00;63941.59;5091578;28;20199;-76
2022/07/27 07:28:27;;;;;;;16.40;8.67;;;;;;;29.41;100.00;63957.28;5090219;28;20669;-75
2022/07/27 07:30:54;;;;;;;15.27;7.73;;;;;;;28.66;100.00;63879.25;5079558;28;20195;-76
2022/07/27 07:33:21;;;;;;;12.47;8.03;;;;;;;29.26;100.00;63935.72;5077700;28;20216;-76
2022/07/27 07:35:50;;;;;;;14.60;7.83;;;;;;;29.51;100.00;63968.75;5091897;28;20197;-75
2022/07/27 07:38:20;;;;;;;10.27;8.07;;;;;;;30.09;100.00;64030.91;5091722;28;20199;-76
2022/07/27 07:40:51;;;;;;;11.57;7.10;;;;;;;30.25;100.00;64051.53;5076846;28;20628;-74
2022/07/27 07:43:20;;;;;;;12.27;8.73;;;;;;;30.21;100.00;64039.28;5091876;28;20201;-74
2022/07/27 07:45:49;;;;;;;13.30;8.60;;;;;;;30.12;100.00;64032.09;5091523;28;20196;-77
2022/07/27 07:48:16;;;;;;;14.37;7.97;;;;;;;29.88;100.00;64005.94;5092571;28;20199;-76
2022/07/27 07:50:43;;;;;;;12.33;8.03;;;;;;;29.98;100.00;64017.38;5089211;28;20687;-76
2022/07/27 07:53:09;;;;;;;15.90;8.47;;;;;;;30.33;100.00;64054.47;5071629;28;20567;-75
2022/07/27 07:55:39;;;;;;;12.40;7.83;;;;;;;30.23;100.00;64043.53;5084839;28;20195;-75
2022/07/27 07:58:06;;;;;;;11.60;8.23;;;;;;;30.30;100.00;64048.56;5064604;28;20302;-75
2022/07/27 08:00:34;;;;;;;14.33;8.20;;;;;;;30.58;100.00;64084.94;5077925;28;20204;-76
2022/07/27 08:03:01;;;;;;;13.33;7.40;;;;;;;30.93;100.00;64119.41;5091896;28;20278;-76
2022/07/27 08:05:28;;;;;;;11.40;7.77;;;;;;;31.33;100.00;64163.59;5082610;28;20196;-75
2022/07/27 08:07:55;;;;;;;12.47;7.23;;;;;;;31.18;100.00;64149.31;5084720;28;20209;-75
2022/07/27 08:10:23;;;;;;;12.80;7.63;;;;;;;31.20;100.00;64148.88;5071587;28;20204;-75
2022/07/27 08:12:54;;;;;;;14.67;7.63;;;;;;;31.06;100.00;64131.50;5071156;28;20207;-76
2022/07/27 08:15:23;;;;;;;15.47;7.57;;;;;;;31.86;100.00;64220.94;5071753;28;20212;-76
2022/07/27 08:17:51;;;;;;;15.50;7.37;;;;;;;31.85;100.00;64219.88;5071697;28;20253;-75
2022/07/27 08:20:18;;;;;;;7.67;6.83;;;;;;;32.22;100.00;64260.28;5071610;28;20198;-76
2022/07/27 08:22:47;;;;;;;8.57;7.50;;;;;;;32.53;100.00;64293.63;5071762;28;20243;-74
2022/07/27 08:25:14;;;;;;;12.03;7.77;;;;;;;32.58;100.00;64301.19;5071638;28;20203;-75
2022/07/27 08:27:41;;;;;;;12.60;7.73;;;;;;;32.04;100.00;64240.63;5071717;28;20197;-76
2022/07/27 08:30:13;;;;;;;9.43;7.10;;;;;;;32.10;100.00;64249.25;5071382;28;20229;-75
2022/07/27 08:32:53;;;;;;;13.20;7.60;;;;;;;32.47;100.00;64286.53;5071310;28;20225;-76
2022/07/27 08:35:21;;;;;;;11.30;7.60;;;;;;;32.13;100.00;64250.47;5071183;28;20197;-75
2022/07/27 08:37:50;;;;;;;13.10;8.23;;;;;;;32.49;100.00;64289.25;5079382;28;20598;-75
2022/07/27 08:40:18;;;;;;;14.77;7.20;;;;;;;32.94;100.00;64337.91;5090534;28;20253;-76
2022/07/27 08:42:45;;;;;;;12.50;7.77;;;;;;;33.12;100.00;64357.59;5091639;28;20190;-76
2022/07/27 08:45:18;;;;;;;12.50;8.23;;;;;;;33.03;100.00;64347.75;5090768;28;20685;-76
2022/07/27 08:47:45;;;;;;;19.33;7.80;;;;;;;33.28;100.00;64380.38;5091270;28;20658;-77
2022/07/27 08:50:23;;;;;;;9.70;7.80;;;;;;;33.43;100.00;64391.47;5074096;28;20226;-74
2022/07/27 08:53:02;;;;;;;18.30;8.60;;;;;;;33.39;100.00;64389.75;5083368;28;20207;-77
2022/07/27 08:55:30;;;;;;;10.80;7.77;;;;;;;33.15;100.00;64360.88;5057947;28;20662;-75
2022/07/27 08:57:57;;;;;;;14.83;8.07;;;;;;;33.35;100.00;64382.72;5084789;28;20242;-76
2022/07/27 09:00:27;;;;;;;18.50;8.67;;;;;;;33.25;100.00;64371.78;5090991;28;20209;-75
2022/07/27 09:02:54;;;;;;;17.83;8.53;;;;;;;33.35;100.00;64382.19;5090399;28;20197;-75
2022/07/27 09:05:21;;;;;;;13.40;7.87;;;;;;;33.41;100.00;64389.28;5085553;28;20200;-74
2022/07/27 09:07:48;;;;;;;10.80;7.97;;;;;;;33.67;100.00;64417.75;5089652;28;20202;-75
2022/07/27 09:10:29;;;;;;;11.87;7.20;;;;;;;33.13;100.00;64363.97;5094601;28;20236;-76
2022/07/27 09:12:57;;;;;;;8.87;7.43;;;;;;;33.96;94.88;64451.56;5094517;28;20257;-75
2022/07/27 09:15:26;;;;;;;13.07;8.13;;;;;;;34.07;93.92;64460.97;5093874;28;20211;-74
2022/07/27 09:17:53;;;;;;;11.97;7.60;;;;;;;34.33;93.24;64492.06;5081879;28;20247;-75
2022/07/27 09:20:21;;;;;;;13.77;7.63;;;;;;;34.46;88.95;64503.63;5093775;28;20660;-74
2022/07/27 09:22:51;;;;;;;12.77;7.93;;;;;;;34.76;92.99;64536.50;5094793;28;20211;-75
2022/07/27 09:25:20;;;;;;;12.97;7.17;;;;;;;34.65;83.79;64519.16;5094460;28;20294;-75
2022/07/27 09:27:48;;;;;;;13.97;7.50;;;;;;;35.02;80.88;64567.06;5093946;28;20259;-75
2022/07/27 09:30:17;;;;;;;15.73;7.77;;;;;;;34.89;81.63;64550.19;5093098;28;20197;-76
2022/07/27 09:32:57;;;;;;;12.30;7.77;;;;;;;34.80;85.67;64540.31;5093677;28;20296;-75
2022/07/27 09:35:28;;;;;;;12.03;7.47;;;;;;;35.28;82.46;64595.53;5087883;28;20224;-77
2022/07/27 09:37:55;;;;;;;11.67;7.67;;;;;;;35.17;76.61;64577.66;5086592;28;20713;-76
2022/07/27 09:40:24;;;;;;;11.87;7.57;;;;;;;35.37;74.89;64602.75;5092336;28;20206;-76
2022/07/27 09:43:12;;;;;;;13.17;7.57;;;;;;;34.75;70.24;64537.50;5093370;28;20198;-75
2022/07/27 09:45:42;;;;;;;9.70;7.60;;;;;;;34.24;73.63;64479.03;5073033;28;20198;-75
2022/07/27 09:48:19;;;;;;;13.37;7.17;;;;;;;34.38;85.53;64499.63;5093119;28;20567;-76
2022/07/27 09:50:59;;;;;;;10.23;7.13;;;;;;;34.66;81.56;64525.00;5094254;28;20225;-77
2022/07/27 09:53:29;;;;;;;10.40;7.30;;;;;;;35.08;79.32;64567.78;5093862;28;20537;-75
2022/07/27 09:55:59;;;;;;;9.07;8.03;;;;;;;35.53;76.37;64617.66;5092383;28;20202;-77
2022/07/27 09:58:42;;;;;;;12.40;7.20;;;;;;;35.27;74.42;64591.81;5095190;28;20743;-75
2022/07/27 10:01:09;;;;;;;11.57;7.53;;;;;;;35.20;73.78;64583.56;5102423;27;20192;-76
2022/07/27 10:03:40;;;;;;;16.27;7.83;;;;;;;34.97;73.24;64558.38;5097528;28;20203;-80
2022/07/27 10:06:09;;;;;;;13.17;8.27;;;;;;;35.18;76.66;64581.94;5079603;28;20200;-76
2022/07/27 10:08:38;;;;;;;11.23;7.93;;;;;;;35.53;73.92;64625.59;5093924;28;20188;-75
2022/07/27 10:11:06;;;;;;;8.93;7.97;;;;;;;34.88;76.27;64551.72;5092665;28;20675;-76
2022/07/27 10:13:33;;;;;;;9.90;7.40;;;;;;;34.53;76.19;64506.03;5093373;28;20566;-75
2022/07/27 10:16:03;;;;;;;13.33;7.43;;;;;;;35.11;71.12;64579.03;5092525;28;20205;-76
2022/07/27 10:18:42;;;;;;;11.17;8.10;;;;;;;35.51;72.70;64618.09;5093643;28;20233;-74
2022/07/27 10:21:11;;;;;;;9.67;8.17;;;;;;;35.62;73.13;64624.84;5092611;28;20216;-76
2022/07/27 10:23:39;;;;;;;13.27;7.47;;;;;;;35.98;67.78;64669.03;5093467;28;20195;-77
2022/07/27 10:26:19;;;;;;;11.07;8.20;;;;;;;36.37;65.98;64717.09;5092298;28;20210;-75
2022/07/27 10:28:55;;;;;;;9.80;7.93;;;;;;;36.25;65.53;64700.75;5091958;28;20244;-76
2022/07/27 10:31:23;;;;;;;8.20;7.27;;;;;;;36.69;61.58;64743.13;5093222;28;20203;-74
2022/07/27 10:33:54;;;;;;;12.47;8.10;;;;;;;37.03;63.08;64785.72;5092978;28;20658;-75
2022/07/27 10:36:46;;;;;;;13.93;7.80;;;;;;;37.44;60.64;64827.50;5093334;28;20668;-75
2022/07/27 10:39:33;;;;;;;10.40;6.90;;;;;;;37.15;60.87;64796.78;5080067;28;20192;-76
2022/07/27 10:42:23;;;;;;;11.73;7.63;;;;;;;37.38;57.68;64826.25;5089590;28;20200;-75
2022/07/27 10:44:58;;;;;;;10.17;7.17;;;;;;;37.28;59.65;64810.50;5085549;28;20654;-76
2022/07/27 10:47:45;;;;;;;8.40;7.57;;;;;;;37.06;59.04;64792.25;5068588;28;20203;-76
2022/07/27 10:50:32;;;;;;;10.90;7.53;;;;;;;37.59;60.20;64846.63;5075753;28;20197;-77
2022/07/27 10:53:15;;;;;;;9.43;8.00;;;;;;;37.92;55.13;64874.84;5072485;28;20655;-75
2022/07/27 10:55:50;;;;;;;9.90;7.43;;;;;;;37.29;52.18;64816.91;5072202;28;20200;-76
2022/07/27 10:58:49;;;;;;;10.23;8.30;;;;;;;36.70;57.60;64752.75;5073223;28;20224;-74
2022/07/27 11:01:17;;;;;;;12.90;8.47;;;;;;;37.10;55.45;64791.31;5062064;28;20208;-76
2022/07/27 11:03:54;;;;;;;12.47;8.77;;;;;;;36.27;56.12;64703.50;5072869;28;20203;-76
2022/07/27 11:06:31;;;;;;;10.53;8.03;;;;;;;37.01;61.69;64781.44;5072948;28;20199;-76
2022/07/27 11:09:01;;;;;;;8.93;8.03;;;;;;;36.84;54.25;64760.13;5072728;28;20196;-76
2022/07/27 11:11:33;;;;;;;12.67;8.57;;;;;;;37.20;54.83;64802.28;5090540;28;20199;-78
2022/07/27 11:14:07;;;;;;;8.33;7.33;;;;;;;37.58;54.24;64845.53;5093093;28;20615;-77
2022/07/27 11:16:38;;;;;;;15.00;7.80;;;;;;;37.09;56.74;64790.19;5101307;28;20191;-75
2022/07/27 11:19:06;;;;;;;9.83;7.70;;;;;;;37.29;58.88;64816.91;5092808;28;20261;-75
2022/07/27 11:21:37;;;;;;;14.47;8.07;;;;;;;37.54;54.19;64839.03;5092412;28;20212;-76
2022/07/27 11:24:10;;;;;;;14.53;9.00;;;;;;;37.62;55.59;64847.81;5092467;28;20200;-76
2022/07/27 11:26:42;;;;;;;10.40;8.03;;;;;;;37.87;52.04;64877.91;5091513;28;20652;-75
2022/07/27 11:29:12;;;;;;;9.23;7.53;;;;;;;37.98;49.99;64886.75;5081264;28;20235;-76
2022/07/27 11:31:41;;;;;;;11.20;8.63;;;;;;;37.99;54.17;64893.19;5090655;28;20202;-77